sensor_id;sensor_type;location;lat;lon;timestamp;temperature;humidity
1786;DHT22;890;48.158;11.540;2024-01-30T00:01:15;5.00;68.20
1786;DHT22;890;48.158;11.540;2024-01-30T00:03:41;4.90;68.40
1786;DHT22;890;48.158;11.540;2024-01-30T00:06:08;4.90;68.60
1786;DHT22;890;48.158;11.540;2024-01-30T00:08:33;4.90;68.60
1786;DHT22;890;48.158;11.540;2024-01-30T00:10:59;4.80;68.10
1786;DHT22;890;48.158;11.540;2024-01-30T00:13:25;4.70;68.00
1786;DHT22;890;48.158;11.540;2024-01-30T00:15:50;4.80;68.50
1786;DHT22;890;48.158;11.540;2024-01-30T00:18:16;4.80;68.70
1786;DHT22;890;48.158;11.540;2024-01-30T00:20:42;4.80;68.70
1786;DHT22;890;48.158;11.540;2024-01-30T00:23:08;4.80;68.80
1786;DHT22;890;48.158;11.540;2024-01-30T00:25:34;4.60;68.50
1786;DHT22;890;48.158;11.540;2024-01-30T00:28:00;4.60;68.80
1786;DHT22;890;48.158;11.540;2024-01-30T00:30:25;4.50;68.40
1786;DHT22;890;48.158;11.540;2024-01-30T00:32:51;4.50;68.20
1786;DHT22;890;48.158;11.540;2024-01-30T00:35:17;4.50;68.10
1786;DHT22;890;48.158;11.540;2024-01-30T00:37:42;4.50;68.20
1786;DHT22;890;48.158;11.540;2024-01-30T00:40:09;4.50;68.20
1786;DHT22;890;48.158;11.540;2024-01-30T00:42:41;4.50;68.20
1786;DHT22;890;48.158;11.540;2024-01-30T00:45:12;4.50;68.10
1786;DHT22;890;48.158;11.540;2024-01-30T00:47:38;4.50;68.00
1786;DHT22;890;48.158;11.540;2024-01-30T00:50:04;7.10;70.40
1786;DHT22;890;48.158;11.540;2024-01-30T00:52:30;4.60;68.50
1786;DHT22;890;48.158;11.540;2024-01-30T00:54:56;4.40;68.10
1786;DHT22;890;48.158;11.540;2024-01-30T00:57:21;4.40;68.20
1786;DHT22;890;48.158;11.540;2024-01-30T00:59:47;4.40;68.30
1786;DHT22;890;48.158;11.540;2024-01-30T01:02:13;4.50;69.00
1786;DHT22;890;48.158;11.540;2024-01-30T01:04:40;4.50;69.20
1786;DHT22;890;48.158;11.540;2024-01-30T01:07:06;4.50;69.40
1786;DHT22;890;48.158;11.540;2024-01-30T01:09:31;4.50;69.50
1786;DHT22;890;48.158;11.540;2024-01-30T01:11:57;4.40;69.20
1786;DHT22;890;48.158;11.540;2024-01-30T01:14:22;4.40;69.50
1786;DHT22;890;48.158;11.540;2024-01-30T01:16:48;4.40;70.20
1786;DHT22;890;48.158;11.540;2024-01-30T01:19:14;4.30;69.50
1786;DHT22;890;48.158;11.540;2024-01-30T01:21:39;4.30;69.30
1786;DHT22;890;48.158;11.540;2024-01-30T01:24:05;4.30;69.00
1786;DHT22;890;48.158;11.540;2024-01-30T01:26:31;4.30;69.00
1786;DHT22;890;48.158;11.540;2024-01-30T01:28:56;4.30;68.70
1786;DHT22;890;48.158;11.540;2024-01-30T01:31:22;4.30;68.70
1786;DHT22;890;48.158;11.540;2024-01-30T01:33:50;4.30;69.30
1786;DHT22;890;48.158;11.540;2024-01-30T01:36:15;4.30;69.10
1786;DHT22;890;48.158;11.540;2024-01-30T01:38:41;4.20;69.00
1786;DHT22;890;48.158;11.540;2024-01-30T01:41:07;4.20;69.20
1786;DHT22;890;48.158;11.540;2024-01-30T01:43:32;4.20;69.70
1786;DHT22;890;48.158;11.540;2024-01-30T01:45:58;4.30;69.60
1786;DHT22;890;48.158;11.540;2024-01-30T01:48:24;4.60;69.80
1786;DHT22;890;48.158;11.540;2024-01-30T01:50:50;4.20;69.30
1786;DHT22;890;48.158;11.540;2024-01-30T01:53:17;4.20;69.20
1786;DHT22;890;48.158;11.540;2024-01-30T01:55:43;4.20;69.30
1786;DHT22;890;48.158;11.540;2024-01-30T01:58:09;4.30;70.00
1786;DHT22;890;48.158;11.540;2024-01-30T02:00:36;4.20;69.80
1786;DHT22;890;48.158;11.540;2024-01-30T02:03:05;4.10;69.50
1786;DHT22;890;48.158;11.540;2024-01-30T02:05:32;4.40;70.20
1786;DHT22;890;48.158;11.540;2024-01-30T02:07:57;4.20;69.70
1786;DHT22;890;48.158;11.540;2024-01-30T02:10:23;4.30;70.20
1786;DHT22;890;48.158;11.540;2024-01-30T02:12:49;4.20;70.00
1786;DHT22;890;48.158;11.540;2024-01-30T02:15:15;4.30;70.40
1786;DHT22;890;48.158;11.540;2024-01-30T02:17:41;4.20;70.10
1786;DHT22;890;48.158;11.540;2024-01-30T02:20:07;4.10;69.90
1786;DHT22;890;48.158;11.540;2024-01-30T02:22:34;4.10;70.10
1786;DHT22;890;48.158;11.540;2024-01-30T02:25:00;4.00;69.90
1786;DHT22;890;48.158;11.540;2024-01-30T02:27:26;4.00;69.90
1786;DHT22;890;48.158;11.540;2024-01-30T02:29:52;4.00;69.70
1786;DHT22;890;48.158;11.540;2024-01-30T02:32:17;4.00;69.50
1786;DHT22;890;48.158;11.540;2024-01-30T02:34:43;4.00;69.60
1786;DHT22;890;48.158;11.540;2024-01-30T02:37:09;4.00;69.60
1786;DHT22;890;48.158;11.540;2024-01-30T02:39:34;4.00;69.50
1786;DHT22;890;48.158;11.540;2024-01-30T02:42:00;4.00;69.50
1786;DHT22;890;48.158;11.540;2024-01-30T02:44:25;4.00;69.60
1786;DHT22;890;48.158;11.540;2024-01-30T02:46:51;4.00;69.70
1786;DHT22;890;48.158;11.540;2024-01-30T02:49:19;4.00;69.70
1786;DHT22;890;48.158;11.540;2024-01-30T02:51:45;4.00;70.00
1786;DHT22;890;48.158;11.540;2024-01-30T02:54:10;4.00;69.90
1786;DHT22;890;48.158;11.540;2024-01-30T02:56:36;4.00;69.80
1786;DHT22;890;48.158;11.540;2024-01-30T02:59:02;4.00;69.70
1786;DHT22;890;48.158;11.540;2024-01-30T03:01:27;4.00;69.70
1786;DHT22;890;48.158;11.540;2024-01-30T03:03:53;4.00;69.90
1786;DHT22;890;48.158;11.540;2024-01-30T03:06:18;4.20;70.20
1786;DHT22;890;48.158;11.540;2024-01-30T03:08:45;4.00;69.90
1786;DHT22;890;48.158;11.540;2024-01-30T03:11:11;4.00;69.90
1786;DHT22;890;48.158;11.540;2024-01-30T03:13:36;3.90;69.90
1786;DHT22;890;48.158;11.540;2024-01-30T03:16:02;3.90;70.00
1786;DHT22;890;48.158;11.540;2024-01-30T03:18:28;3.90;70.00
1786;DHT22;890;48.158;11.540;2024-01-30T03:20:53;3.90;70.10
1786;DHT22;890;48.158;11.540;2024-01-30T03:23:19;3.90;70.10
1786;DHT22;890;48.158;11.540;2024-01-30T03:25:45;3.90;70.20
1786;DHT22;890;48.158;11.540;2024-01-30T03:28:10;3.90;70.10
1786;DHT22;890;48.158;11.540;2024-01-30T03:30:36;3.90;70.20
1786;DHT22;890;48.158;11.540;2024-01-30T03:33:02;3.90;70.00
1786;DHT22;890;48.158;11.540;2024-01-30T03:35:28;3.90;69.90
1786;DHT22;890;48.158;11.540;2024-01-30T03:37:53;3.90;69.90
1786;DHT22;890;48.158;11.540;2024-01-30T03:40:19;3.90;69.80
1786;DHT22;890;48.158;11.540;2024-01-30T03:42:45;3.90;69.80
1786;DHT22;890;48.158;11.540;2024-01-30T03:45:10;3.90;69.70
1786;DHT22;890;48.158;11.540;2024-01-30T03:47:36;3.90;69.80
1786;DHT22;890;48.158;11.540;2024-01-30T03:50:02;3.80;70.40
1786;DHT22;890;48.158;11.540;2024-01-30T03:52:27;3.80;69.80
1786;DHT22;890;48.158;11.540;2024-01-30T03:54:53;3.80;69.90
1786;DHT22;890;48.158;11.540;2024-01-30T03:57:19;4.00;70.50
1786;DHT22;890;48.158;11.540;2024-01-30T03:59:44;3.90;70.50
1786;DHT22;890;48.158;11.540;2024-01-30T04:02:11;3.90;70.50
1786;DHT22;890;48.158;11.540;2024-01-30T04:04:37;3.90;70.40
1786;DHT22;890;48.158;11.540;2024-01-30T04:07:03;3.80;70.30
1786;DHT22;890;48.158;11.540;2024-01-30T04:09:28;3.80;70.40
1786;DHT22;890;48.158;11.540;2024-01-30T04:11:54;3.80;70.40
1786;DHT22;890;48.158;11.540;2024-01-30T04:14:20;3.80;70.40
1786;DHT22;890;48.158;11.540;2024-01-30T04:16:45;3.80;70.50
1786;DHT22;890;48.158;11.540;2024-01-30T04:19:11;3.80;70.40
1786;DHT22;890;48.158;11.540;2024-01-30T04:21:36;3.80;70.30
1786;DHT22;890;48.158;11.540;2024-01-30T04:24:02;3.80;70.30
1786;DHT22;890;48.158;11.540;2024-01-30T04:26:28;3.80;70.20
1786;DHT22;890;48.158;11.540;2024-01-30T04:28:53;3.70;70.20
1786;DHT22;890;48.158;11.540;2024-01-30T04:31:19;3.70;70.40
1786;DHT22;890;48.158;11.540;2024-01-30T04:33:45;3.70;70.70
1786;DHT22;890;48.158;11.540;2024-01-30T04:36:10;3.60;70.50
1786;DHT22;890;48.158;11.540;2024-01-30T04:38:37;3.60;70.40
1786;DHT22;890;48.158;11.540;2024-01-30T04:41:02;3.60;70.30
1786;DHT22;890;48.158;11.540;2024-01-30T04:43:29;3.60;70.20
1786;DHT22;890;48.158;11.540;2024-01-30T04:45:55;3.60;70.40
1786;DHT22;890;48.158;11.540;2024-01-30T04:48:21;3.60;70.50
1786;DHT22;890;48.158;11.540;2024-01-30T04:50:46;3.60;70.50
1786;DHT22;890;48.158;11.540;2024-01-30T04:53:12;3.60;70.70
1786;DHT22;890;48.158;11.540;2024-01-30T04:55:37;3.60;70.70
1786;DHT22;890;48.158;11.540;2024-01-30T04:58:03;3.60;70.70
1786;DHT22;890;48.158;11.540;2024-01-30T05:00:29;3.60;70.70
1786;DHT22;890;48.158;11.540;2024-01-30T05:02:55;3.50;70.60
1786;DHT22;890;48.158;11.540;2024-01-30T05:05:21;3.40;70.50
1786;DHT22;890;48.158;11.540;2024-01-30T05:07:47;3.60;70.80
1786;DHT22;890;48.158;11.540;2024-01-30T05:10:13;3.50;71.20
1786;DHT22;890;48.158;11.540;2024-01-30T05:12:39;3.50;71.00
1786;DHT22;890;48.158;11.540;2024-01-30T05:15:05;3.50;71.30
1786;DHT22;890;48.158;11.540;2024-01-30T05:17:31;3.40;71.10
1786;DHT22;890;48.158;11.540;2024-01-30T05:19:57;3.40;71.10
1786;DHT22;890;48.158;11.540;2024-01-30T05:22:23;3.30;71.10
1786;DHT22;890;48.158;11.540;2024-01-30T05:24:48;3.40;71.20
1786;DHT22;890;48.158;11.540;2024-01-30T05:27:14;3.40;71.50
1786;DHT22;890;48.158;11.540;2024-01-30T05:29:40;3.40;71.40
1786;DHT22;890;48.158;11.540;2024-01-30T05:32:06;3.30;71.40
1786;DHT22;890;48.158;11.540;2024-01-30T05:34:32;3.30;71.40
1786;DHT22;890;48.158;11.540;2024-01-30T05:36:58;3.30;71.40
1786;DHT22;890;48.158;11.540;2024-01-30T05:39:23;3.30;71.30
1786;DHT22;890;48.158;11.540;2024-01-30T05:41:49;3.30;71.10
1786;DHT22;890;48.158;11.540;2024-01-30T05:44:15;3.30;71.20
1786;DHT22;890;48.158;11.540;2024-01-30T05:46:40;3.30;71.30
1786;DHT22;890;48.158;11.540;2024-01-30T05:49:06;3.20;71.30
1786;DHT22;890;48.158;11.540;2024-01-30T05:51:32;3.40;71.50
1786;DHT22;890;48.158;11.540;2024-01-30T05:53:57;3.20;71.40
1786;DHT22;890;48.158;11.540;2024-01-30T05:56:23;3.20;71.40
1786;DHT22;890;48.158;11.540;2024-01-30T05:58:49;3.20;71.40
1786;DHT22;890;48.158;11.540;2024-01-30T06:01:16;3.20;71.50
1786;DHT22;890;48.158;11.540;2024-01-30T06:03:41;3.40;71.80
1786;DHT22;890;48.158;11.540;2024-01-30T06:06:09;3.30;71.60
1786;DHT22;890;48.158;11.540;2024-01-30T06:08:34;3.50;71.60
1786;DHT22;890;48.158;11.540;2024-01-30T06:11:00;3.40;71.50
1786;DHT22;890;48.158;11.540;2024-01-30T06:13:26;3.40;71.50
1786;DHT22;890;48.158;11.540;2024-01-30T06:15:52;3.40;71.60
1786;DHT22;890;48.158;11.540;2024-01-30T06:18:18;3.40;71.70
1786;DHT22;890;48.158;11.540;2024-01-30T06:20:43;3.40;71.70
1786;DHT22;890;48.158;11.540;2024-01-30T06:23:09;3.40;71.80
1786;DHT22;890;48.158;11.540;2024-01-30T06:25:35;3.60;72.00
1786;DHT22;890;48.158;11.540;2024-01-30T06:28:01;3.40;71.80
1786;DHT22;890;48.158;11.540;2024-01-30T06:30:26;3.40;71.70
1786;DHT22;890;48.158;11.540;2024-01-30T06:32:52;3.40;71.70
1786;DHT22;890;48.158;11.540;2024-01-30T06:35:18;3.40;71.90
1786;DHT22;890;48.158;11.540;2024-01-30T06:37:43;3.40;71.80
1786;DHT22;890;48.158;11.540;2024-01-30T06:40:09;3.50;71.90
1786;DHT22;890;48.158;11.540;2024-01-30T06:42:35;3.50;71.90
1786;DHT22;890;48.158;11.540;2024-01-30T06:45:01;3.50;71.90
1786;DHT22;890;48.158;11.540;2024-01-30T06:47:26;3.60;71.90
1786;DHT22;890;48.158;11.540;2024-01-30T06:49:54;3.70;72.00
1786;DHT22;890;48.158;11.540;2024-01-30T06:52:19;3.60;71.80
1786;DHT22;890;48.158;11.540;2024-01-30T06:54:45;4.10;72.30
1786;DHT22;890;48.158;11.540;2024-01-30T06:57:10;3.90;72.20
1786;DHT22;890;48.158;11.540;2024-01-30T06:59:37;3.70;72.00
1786;DHT22;890;48.158;11.540;2024-01-30T07:02:09;4.00;72.30
1786;DHT22;890;48.158;11.540;2024-01-30T07:04:35;3.80;72.00
1786;DHT22;890;48.158;11.540;2024-01-30T07:07:02;3.80;71.90
1786;DHT22;890;48.158;11.540;2024-01-30T07:09:30;3.80;72.00
1786;DHT22;890;48.158;11.540;2024-01-30T07:11:56;3.80;71.90
1786;DHT22;890;48.158;11.540;2024-01-30T07:14:24;3.90;72.00
1786;DHT22;890;48.158;11.540;2024-01-30T07:16:49;3.90;72.00
1786;DHT22;890;48.158;11.540;2024-01-30T07:19:16;4.00;72.10
1786;DHT22;890;48.158;11.540;2024-01-30T07:21:42;4.00;72.20
1786;DHT22;890;48.158;11.540;2024-01-30T07:24:08;4.10;72.30
1786;DHT22;890;48.158;11.540;2024-01-30T07:26:33;4.10;72.10
1786;DHT22;890;48.158;11.540;2024-01-30T07:29:01;4.20;72.20
1786;DHT22;890;48.158;11.540;2024-01-30T07:31:26;4.20;72.10
1786;DHT22;890;48.158;11.540;2024-01-30T07:33:52;4.30;72.10
1786;DHT22;890;48.158;11.540;2024-01-30T07:36:18;4.30;72.20
1786;DHT22;890;48.158;11.540;2024-01-30T07:38:44;4.30;72.20
1786;DHT22;890;48.158;11.540;2024-01-30T07:41:09;4.40;72.30
1786;DHT22;890;48.158;11.540;2024-01-30T07:43:35;5.00;72.90
1786;DHT22;890;48.158;11.540;2024-01-30T07:46:01;4.60;72.40
1786;DHT22;890;48.158;11.540;2024-01-30T07:48:28;4.60;72.30
1786;DHT22;890;48.158;11.540;2024-01-30T07:50:53;4.70;72.40
1786;DHT22;890;48.158;11.540;2024-01-30T07:53:19;4.70;72.30
1786;DHT22;890;48.158;11.540;2024-01-30T07:55:45;4.90;72.20
1786;DHT22;890;48.158;11.540;2024-01-30T07:58:12;5.00;71.70
1786;DHT22;890;48.158;11.540;2024-01-30T08:00:37;5.00;71.50
1786;DHT22;890;48.158;11.540;2024-01-30T08:03:04;5.60;72.20
1786;DHT22;890;48.158;11.540;2024-01-30T08:05:30;5.30;71.50
1786;DHT22;890;48.158;11.540;2024-01-30T08:07:56;5.50;71.30
1786;DHT22;890;48.158;11.540;2024-01-30T08:10:22;5.50;71.00
1786;DHT22;890;48.158;11.540;2024-01-30T08:12:47;5.60;71.00
1786;DHT22;890;48.158;11.540;2024-01-30T08:15:13;5.70;70.90
1786;DHT22;890;48.158;11.540;2024-01-30T08:17:39;5.80;71.00
1786;DHT22;890;48.158;11.540;2024-01-30T08:20:05;5.90;70.90
1786;DHT22;890;48.158;11.540;2024-01-30T08:22:31;5.90;70.70
1786;DHT22;890;48.158;11.540;2024-01-30T08:24:57;6.00;70.80
1786;DHT22;890;48.158;11.540;2024-01-30T08:27:22;6.00;70.60
1786;DHT22;890;48.158;11.540;2024-01-30T08:29:48;6.10;70.60
1786;DHT22;890;48.158;11.540;2024-01-30T08:32:15;6.30;70.60
1786;DHT22;890;48.158;11.540;2024-01-30T08:34:41;6.30;69.80
1786;DHT22;890;48.158;11.540;2024-01-30T08:37:06;6.50;69.90
1786;DHT22;890;48.158;11.540;2024-01-30T08:39:33;6.50;70.00
1786;DHT22;890;48.158;11.540;2024-01-30T08:41:58;6.60;69.60
1786;DHT22;890;48.158;11.540;2024-01-30T08:44:24;6.90;69.30
1786;DHT22;890;48.158;11.540;2024-01-30T08:46:50;7.00;68.90
1786;DHT22;890;48.158;11.540;2024-01-30T08:49:19;7.00;68.80
1786;DHT22;890;48.158;11.540;2024-01-30T08:51:45;7.50;68.60
1786;DHT22;890;48.158;11.540;2024-01-30T08:54:11;7.20;68.00
1786;DHT22;890;48.158;11.540;2024-01-30T08:56:36;7.40;67.90
1786;DHT22;890;48.158;11.540;2024-01-30T08:59:02;7.50;67.90
1786;DHT22;890;48.158;11.540;2024-01-30T09:01:28;7.70;70.00
1786;DHT22;890;48.158;11.540;2024-01-30T09:03:53;8.40;76.50
1786;DHT22;890;48.158;11.540;2024-01-30T09:06:19;9.00;78.30
1786;DHT22;890;48.158;11.540;2024-01-30T09:08:44;9.70;77.40
1786;DHT22;890;48.158;11.540;2024-01-30T09:11:12;10.30;76.60
1786;DHT22;890;48.158;11.540;2024-01-30T09:13:38;10.80;77.90
1786;DHT22;890;48.158;11.540;2024-01-30T09:16:04;11.50;83.60
1786;DHT22;890;48.158;11.540;2024-01-30T09:18:30;12.30;85.20
1786;DHT22;890;48.158;11.540;2024-01-30T09:20:56;13.00;84.10
1786;DHT22;890;48.158;11.540;2024-01-30T09:23:21;13.60;84.40
1786;DHT22;890;48.158;11.540;2024-01-30T09:25:47;14.00;79.00
1786;DHT22;890;48.158;11.540;2024-01-30T09:28:13;14.20;77.90
1786;DHT22;890;48.158;11.540;2024-01-30T09:30:39;14.20;79.80
1786;DHT22;890;48.158;11.540;2024-01-30T09:33:05;14.60;81.20
1786;DHT22;890;48.158;11.540;2024-01-30T09:35:31;14.90;78.30
1786;DHT22;890;48.158;11.540;2024-01-30T09:37:57;15.20;76.30
1786;DHT22;890;48.158;11.540;2024-01-30T09:40:25;15.50;74.50
1786;DHT22;890;48.158;11.540;2024-01-30T09:42:51;15.80;69.30
1786;DHT22;890;48.158;11.540;2024-01-30T09:45:21;16.00;67.90
1786;DHT22;890;48.158;11.540;2024-01-30T09:47:49;16.30;70.30
1786;DHT22;890;48.158;11.540;2024-01-30T09:50:15;16.80;70.00
1786;DHT22;890;48.158;11.540;2024-01-30T09:52:43;17.10;68.90
1786;DHT22;890;48.158;11.540;2024-01-30T09:55:09;17.60;69.50
1786;DHT22;890;48.158;11.540;2024-01-30T09:57:35;18.00;69.70
1786;DHT22;890;48.158;11.540;2024-01-30T10:00:01;18.60;71.90
1786;DHT22;890;48.158;11.540;2024-01-30T10:02:27;19.50;76.60
1786;DHT22;890;48.158;11.540;2024-01-30T10:04:53;20.40;80.00
1786;DHT22;890;48.158;11.540;2024-01-30T10:07:19;21.00;77.50
1786;DHT22;890;48.158;11.540;2024-01-30T10:09:45;21.90;71.20
1786;DHT22;890;48.158;11.540;2024-01-30T10:12:12;22.60;65.50
1786;DHT22;890;48.158;11.540;2024-01-30T10:14:38;21.90;58.70
1786;DHT22;890;48.158;11.540;2024-01-30T10:17:04;23.20;56.70
1786;DHT22;890;48.158;11.540;2024-01-30T10:19:31;23.10;55.00
1786;DHT22;890;48.158;11.540;2024-01-30T10:21:57;22.60;53.40
1786;DHT22;890;48.158;11.540;2024-01-30T10:24:26;22.30;53.00
1786;DHT22;890;48.158;11.540;2024-01-30T10:26:53;22.20;51.00
1786;DHT22;890;48.158;11.540;2024-01-30T10:29:18;21.90;50.50
1786;DHT22;890;48.158;11.540;2024-01-30T10:31:44;21.60;50.00
1786;DHT22;890;48.158;11.540;2024-01-30T10:34:10;21.20;48.90
1786;DHT22;890;48.158;11.540;2024-01-30T10:36:40;20.90;48.00
1786;DHT22;890;48.158;11.540;2024-01-30T10:39:09;20.30;46.50
1786;DHT22;890;48.158;11.540;2024-01-30T10:41:44;20.10;47.50
1786;DHT22;890;48.158;11.540;2024-01-30T10:44:10;20.20;48.70
1786;DHT22;890;48.158;11.540;2024-01-30T10:46:38;20.60;50.60
1786;DHT22;890;48.158;11.540;2024-01-30T10:49:04;21.10;51.70
1786;DHT22;890;48.158;11.540;2024-01-30T10:51:31;21.30;52.30
1786;DHT22;890;48.158;11.540;2024-01-30T10:53:57;21.70;53.20
1786;DHT22;890;48.158;11.540;2024-01-30T10:56:24;22.20;52.60
1786;DHT22;890;48.158;11.540;2024-01-30T10:58:53;22.30;51.90
1786;DHT22;890;48.158;11.540;2024-01-30T11:01:21;22.30;49.90
1786;DHT22;890;48.158;11.540;2024-01-30T11:03:50;22.30;48.10
1786;DHT22;890;48.158;11.540;2024-01-30T11:06:16;21.80;46.80
1786;DHT22;890;48.158;11.540;2024-01-30T11:08:44;21.10;44.00
1786;DHT22;890;48.158;11.540;2024-01-30T11:11:10;20.70;42.40
1786;DHT22;890;48.158;11.540;2024-01-30T11:13:36;20.10;42.60
1786;DHT22;890;48.158;11.540;2024-01-30T11:16:05;19.70;43.00
1786;DHT22;890;48.158;11.540;2024-01-30T11:18:33;19.30;42.50
1786;DHT22;890;48.158;11.540;2024-01-30T11:20:59;18.90;42.20
1786;DHT22;890;48.158;11.540;2024-01-30T11:23:27;18.70;42.40
1786;DHT22;890;48.158;11.540;2024-01-30T11:25:53;18.50;42.90
1786;DHT22;890;48.158;11.540;2024-01-30T11:28:21;18.60;43.10
1786;DHT22;890;48.158;11.540;2024-01-30T11:30:47;18.50;43.50
1786;DHT22;890;48.158;11.540;2024-01-30T11:33:29;18.60;44.00
1786;DHT22;890;48.158;11.540;2024-01-30T11:35:57;18.60;44.60
1786;DHT22;890;48.158;11.540;2024-01-30T11:38:23;18.60;44.10
1786;DHT22;890;48.158;11.540;2024-01-30T11:40:51;18.40;41.90
1786;DHT22;890;48.158;11.540;2024-01-30T11:43:18;17.90;40.70
1786;DHT22;890;48.158;11.540;2024-01-30T11:45:44;17.50;40.80
1786;DHT22;890;48.158;11.540;2024-01-30T11:48:12;17.60;41.80
1786;DHT22;890;48.158;11.540;2024-01-30T11:50:39;17.80;42.60
1786;DHT22;890;48.158;11.540;2024-01-30T11:53:05;17.90;42.70
1786;DHT22;890;48.158;11.540;2024-01-30T11:55:31;18.30;42.50
1786;DHT22;890;48.158;11.540;2024-01-30T11:57:58;18.70;41.60
1786;DHT22;890;48.158;11.540;2024-01-30T12:00:24;18.80;41.20
1786;DHT22;890;48.158;11.540;2024-01-30T12:02:54;18.70;40.60
1786;DHT22;890;48.158;11.540;2024-01-30T12:05:24;18.50;40.30
1786;DHT22;890;48.158;11.540;2024-01-30T12:07:50;18.20;41.40
1786;DHT22;890;48.158;11.540;2024-01-30T12:10:16;18.10;43.80
1786;DHT22;890;48.158;11.540;2024-01-30T12:12:48;18.40;46.70
1786;DHT22;890;48.158;11.540;2024-01-30T12:15:15;18.90;48.60
1786;DHT22;890;48.158;11.540;2024-01-30T12:17:41;19.80;49.60
1786;DHT22;890;48.158;11.540;2024-01-30T12:20:15;20.70;50.20
1786;DHT22;890;48.158;11.540;2024-01-30T12:22:43;21.60;49.50
1786;DHT22;890;48.158;11.540;2024-01-30T12:25:10;22.20;47.30
1786;DHT22;890;48.158;11.540;2024-01-30T12:27:37;22.50;43.20
1786;DHT22;890;48.158;11.540;2024-01-30T12:30:09;22.40;41.20
1786;DHT22;890;48.158;11.540;2024-01-30T12:32:36;22.30;40.50
1786;DHT22;890;48.158;11.540;2024-01-30T12:35:02;21.80;39.40
1786;DHT22;890;48.158;11.540;2024-01-30T12:37:30;20.90;38.40
1786;DHT22;890;48.158;11.540;2024-01-30T12:39:56;20.10;37.70
1786;DHT22;890;48.158;11.540;2024-01-30T12:42:22;19.70;37.60
1786;DHT22;890;48.158;11.540;2024-01-30T12:44:48;19.30;37.70
1786;DHT22;890;48.158;11.540;2024-01-30T12:47:14;18.90;38.30
1786;DHT22;890;48.158;11.540;2024-01-30T12:49:42;18.60;38.00
1786;DHT22;890;48.158;11.540;2024-01-30T12:52:08;18.20;37.50
1786;DHT22;890;48.158;11.540;2024-01-30T12:54:34;17.80;37.10
1786;DHT22;890;48.158;11.540;2024-01-30T12:57:00;17.60;37.00
1786;DHT22;890;48.158;11.540;2024-01-30T12:59:25;17.50;36.60
1786;DHT22;890;48.158;11.540;2024-01-30T13:01:51;17.50;36.30
1786;DHT22;890;48.158;11.540;2024-01-30T13:04:17;17.30;35.80
1786;DHT22;890;48.158;11.540;2024-01-30T13:06:42;17.00;35.80
1786;DHT22;890;48.158;11.540;2024-01-30T13:09:08;16.80;35.90
1786;DHT22;890;48.158;11.540;2024-01-30T13:11:34;16.80;35.90
1786;DHT22;890;48.158;11.540;2024-01-30T13:14:00;16.60;35.70
1786;DHT22;890;48.158;11.540;2024-01-30T13:16:26;16.50;35.90
1786;DHT22;890;48.158;11.540;2024-01-30T13:18:51;16.40;35.70
1786;DHT22;890;48.158;11.540;2024-01-30T13:21:17;16.20;35.80
1786;DHT22;890;48.158;11.540;2024-01-30T13:23:43;16.10;35.80
1786;DHT22;890;48.158;11.540;2024-01-30T13:26:08;16.00;35.90
1786;DHT22;890;48.158;11.540;2024-01-30T13:28:34;15.70;35.90
1786;DHT22;890;48.158;11.540;2024-01-30T13:31:00;15.60;36.10
1786;DHT22;890;48.158;11.540;2024-01-30T13:33:26;15.60;36.10
1786;DHT22;890;48.158;11.540;2024-01-30T13:35:52;15.50;36.00
1786;DHT22;890;48.158;11.540;2024-01-30T13:38:17;15.40;36.10
1786;DHT22;890;48.158;11.540;2024-01-30T13:40:43;15.30;36.10
1786;DHT22;890;48.158;11.540;2024-01-30T13:43:09;15.20;36.30
1786;DHT22;890;48.158;11.540;2024-01-30T13:45:34;15.10;36.30
1786;DHT22;890;48.158;11.540;2024-01-30T13:48:00;15.00;36.50
1786;DHT22;890;48.158;11.540;2024-01-30T13:50:26;14.90;36.40
1786;DHT22;890;48.158;11.540;2024-01-30T13:52:52;14.90;36.50
1786;DHT22;890;48.158;11.540;2024-01-30T13:55:17;14.80;36.60
1786;DHT22;890;48.158;11.540;2024-01-30T13:57:43;14.80;36.70
1786;DHT22;890;48.158;11.540;2024-01-30T14:00:09;14.80;36.80
1786;DHT22;890;48.158;11.540;2024-01-30T14:02:35;14.70;36.90
1786;DHT22;890;48.158;11.540;2024-01-30T14:05:00;14.60;37.10
1786;DHT22;890;48.158;11.540;2024-01-30T14:07:26;14.60;37.00
1786;DHT22;890;48.158;11.540;2024-01-30T14:09:52;14.50;37.20
1786;DHT22;890;48.158;11.540;2024-01-30T14:12:17;14.40;37.40
1786;DHT22;890;48.158;11.540;2024-01-30T14:14:43;14.40;37.50
1786;DHT22;890;48.158;11.540;2024-01-30T14:17:08;14.40;37.70
1786;DHT22;890;48.158;11.540;2024-01-30T14:19:35;14.40;37.90
1786;DHT22;890;48.158;11.540;2024-01-30T14:22:01;14.30;37.90
1786;DHT22;890;48.158;11.540;2024-01-30T14:24:27;14.30;38.10
1786;DHT22;890;48.158;11.540;2024-01-30T14:26:52;14.20;38.10
1786;DHT22;890;48.158;11.540;2024-01-30T14:29:18;14.20;38.50
1786;DHT22;890;48.158;11.540;2024-01-30T14:31:44;14.20;38.80
1786;DHT22;890;48.158;11.540;2024-01-30T14:34:09;14.10;39.00
1786;DHT22;890;48.158;11.540;2024-01-30T14:36:37;14.10;39.30
1786;DHT22;890;48.158;11.540;2024-01-30T14:39:03;14.00;39.50
1786;DHT22;890;48.158;11.540;2024-01-30T14:41:29;14.00;39.60
1786;DHT22;890;48.158;11.540;2024-01-30T14:43:55;14.00;39.80
1786;DHT22;890;48.158;11.540;2024-01-30T14:46:21;14.10;39.90
1786;DHT22;890;48.158;11.540;2024-01-30T14:48:47;14.00;40.00
1786;DHT22;890;48.158;11.540;2024-01-30T14:51:13;14.00;40.10
1786;DHT22;890;48.158;11.540;2024-01-30T14:53:39;14.00;40.20
1786;DHT22;890;48.158;11.540;2024-01-30T14:56:05;14.00;40.30
1786;DHT22;890;48.158;11.540;2024-01-30T14:58:31;14.00;40.50
1786;DHT22;890;48.158;11.540;2024-01-30T15:00:57;13.90;40.50
1786;DHT22;890;48.158;11.540;2024-01-30T15:03:23;13.90;40.60
1786;DHT22;890;48.158;11.540;2024-01-30T15:05:48;13.80;40.60
1786;DHT22;890;48.158;11.540;2024-01-30T15:08:14;13.70;40.70
1786;DHT22;890;48.158;11.540;2024-01-30T15:10:40;13.70;40.80
1786;DHT22;890;48.158;11.540;2024-01-30T15:13:05;13.70;41.00
1786;DHT22;890;48.158;11.540;2024-01-30T15:15:31;13.70;41.20
1786;DHT22;890;48.158;11.540;2024-01-30T15:17:57;13.60;41.30
1786;DHT22;890;48.158;11.540;2024-01-30T15:20:23;13.60;41.50
1786;DHT22;890;48.158;11.540;2024-01-30T15:22:49;13.50;41.70
1786;DHT22;890;48.158;11.540;2024-01-30T15:25:15;13.50;42.00
1786;DHT22;890;48.158;11.540;2024-01-30T15:27:40;13.50;42.10
1786;DHT22;890;48.158;11.540;2024-01-30T15:30:07;13.50;42.20
1786;DHT22;890;48.158;11.540;2024-01-30T15:32:33;14.60;43.20
1786;DHT22;890;48.158;11.540;2024-01-30T15:35:00;13.40;42.60
1786;DHT22;890;48.158;11.540;2024-01-30T15:37:28;13.30;42.60
1786;DHT22;890;48.158;11.540;2024-01-30T15:39:54;13.30;42.70
1786;DHT22;890;48.158;11.540;2024-01-30T15:42:20;13.30;42.80
1786;DHT22;890;48.158;11.540;2024-01-30T15:44:45;13.20;42.90
1786;DHT22;890;48.158;11.540;2024-01-30T15:47:11;13.20;43.10
1786;DHT22;890;48.158;11.540;2024-01-30T15:49:36;13.10;43.30
1786;DHT22;890;48.158;11.540;2024-01-30T15:52:02;13.00;43.40
1786;DHT22;890;48.158;11.540;2024-01-30T15:54:28;12.90;43.60
1786;DHT22;890;48.158;11.540;2024-01-30T15:56:53;12.80;43.80
1786;DHT22;890;48.158;11.540;2024-01-30T15:59:19;12.70;43.90
1786;DHT22;890;48.158;11.540;2024-01-30T16:01:45;12.70;44.20
1786;DHT22;890;48.158;11.540;2024-01-30T16:04:14;12.50;44.40